createdAt,value
2022-12-08T00:02:09.000Z,85.46
2022-12-08T00:04:58.247Z,86.19
2022-12-08T00:07:45.601Z,85.92
2022-12-08T00:10:46.470Z,85.74
2022-12-08T00:13:03.278Z,85.75
2022-12-08T00:15:31.712Z,87.07
2022-12-08T00:18:00.235Z,86.62
2022-12-08T00:20:28.766Z,86.91
2022-12-08T00:22:58.599Z,87.75
2022-12-08T00:25:27.107Z,88.41
2022-12-08T00:27:55.540Z,88.84
2022-12-08T00:30:24.115Z,88.96
2022-12-08T00:32:52.659Z,88.45
2022-12-08T00:35:21.179Z,87.14
2022-12-08T00:37:49.682Z,87.62
2022-12-08T00:40:19.787Z,88.04
2022-12-08T00:42:48.306Z,87.72
2022-12-08T00:45:17.646Z,87.66
2022-12-08T00:47:46.180Z,88.53
2022-12-08T00:50:14.750Z,88.97
2022-12-08T00:52:43.210Z,89.85
2022-12-08T00:55:11.878Z,89.16
2022-12-08T00:57:41.708Z,88.79
2022-12-08T01:00:11.049Z,89.17
2022-12-08T01:02:39.503Z,90.39
2022-12-08T01:05:08.969Z,89.69
2022-12-08T01:07:37.728Z,88.82
2022-12-08T01:10:07.884Z,89.34
2022-12-08T01:12:36.763Z,88.51
2022-12-08T01:15:07.717Z,88.57
2022-12-08T01:17:37.906Z,88.21
2022-12-08T01:20:07.963Z,88.42
2022-12-08T01:22:36.558Z,87.98
2022-12-08T01:25:05.572Z,88.20
2022-12-08T01:27:34.107Z,88.40
2022-12-08T01:30:03.661Z,88.88
2022-12-08T01:32:33.796Z,89.25
2022-12-08T01:35:02.679Z,89.57
2022-12-08T01:37:31.263Z,88.31
2022-12-08T01:39:59.814Z,89.49
2022-12-08T01:42:28.278Z,88.40
2022-12-08T01:44:59.939Z,87.60
2022-12-08T01:47:36.659Z,88.64
2022-12-08T01:50:09.819Z,88.35
2022-12-08T01:52:41.836Z,89.37
2022-12-08T01:55:18.429Z,88.29
2022-12-08T01:57:48.401Z,88.00
2022-12-08T02:00:20.758Z,89.33
2022-12-08T02:02:58.983Z,89.76
2022-12-08T02:05:30.014Z,89.66
2022-12-08T02:07:59.744Z,89.47
2022-12-08T02:10:31.470Z,89.87
2022-12-08T02:13:02.035Z,89.27
2022-12-08T02:15:37.007Z,89.40
2022-12-08T02:18:19.653Z,88.53
2022-12-08T02:20:57.213Z,88.17
2022-12-08T02:23:36.162Z,89.36
2022-12-08T02:26:40.642Z,89.37
2022-12-08T02:29:39.969Z,89.59
2022-12-08T02:32:28.723Z,89.92
2022-12-08T02:35:04.956Z,89.79
2022-12-08T02:37:38.216Z,89.46
2022-12-08T02:40:15.452Z,90.35
2022-12-08T02:42:48.095Z,89.02
2022-12-08T02:45:23.484Z,89.57
2022-12-08T02:47:52.967Z,89.04
2022-12-08T02:50:22.898Z,88.82
2022-12-08T02:52:53.978Z,88.74
2022-12-08T02:55:27.515Z,89.21
2022-12-08T02:58:27.589Z,89.82
2022-12-08T03:01:13.927Z,89.81
2022-12-08T03:03:52.976Z,90.49
2022-12-08T03:06:30.265Z,90.10
2022-12-08T03:09:04.380Z,89.18
2022-12-08T03:11:37.453Z,89.86
2022-12-08T03:14:09.685Z,89.94
2022-12-08T03:16:41.370Z,89.93
2022-12-08T03:19:15.327Z,89.29
2022-12-08T03:21:48.924Z,89.52
2022-12-08T03:24:19.946Z,88.97
2022-12-08T03:26:54.298Z,89.18
2022-12-08T03:29:23.031Z,90.87
2022-12-08T03:31:55.487Z,88.85
2022-12-08T03:34:26.975Z,89.20
2022-12-08T03:36:57.152Z,90.03
2022-12-08T03:39:25.664Z,91.19
2022-12-08T03:41:54.251Z,89.64
2022-12-08T03:44:22.750Z,90.04
2022-12-08T03:46:51.215Z,89.92
2022-12-08T03:49:19.683Z,89.97
2022-12-08T03:51:48.105Z,90.20
2022-12-08T03:54:18.012Z,90.48
2022-12-08T03:56:46.501Z,90.32
2022-12-08T03:59:15.078Z,90.68
2022-12-08T04:01:43.684Z,89.72
2022-12-08T04:04:12.516Z,89.39
2022-12-08T04:06:41.026Z,89.35
2022-12-08T04:09:10.314Z,90.13
2022-12-08T04:11:40.187Z,90.16
2022-12-08T04:14:08.816Z,90.34
2022-12-08T04:16:37.483Z,89.51
2022-12-08T04:19:05.989Z,90.14
2022-12-08T04:21:35.525Z,89.90
2022-12-08T04:24:04.115Z,89.13
2022-12-08T04:26:32.651Z,88.91
2022-12-08T04:29:02.482Z,91.04
2022-12-08T04:31:31.069Z,90.44
2022-12-08T04:33:59.603Z,90.52
2022-12-08T04:36:30.900Z,90.02
2022-12-08T04:38:59.453Z,90.24
2022-12-08T04:41:27.949Z,89.06
2022-12-08T04:43:56.423Z,89.28
2022-12-08T04:46:26.319Z,90.40
2022-12-08T04:48:54.811Z,90.30
2022-12-08T04:51:23.372Z,89.12
2022-12-08T04:53:51.887Z,90.65
2022-12-08T04:56:21.351Z,90.20
2022-12-08T04:58:49.838Z,90.66
2022-12-08T05:01:18.472Z,90.85
2022-12-08T05:03:48.323Z,90.75
2022-12-08T05:06:16.842Z,90.08
2022-12-08T05:08:45.427Z,90.86
2022-12-08T05:11:14.635Z,89.48
2022-12-08T05:13:43.151Z,90.59
2022-12-08T05:16:14.393Z,90.00
2022-12-08T05:18:43.843Z,90.31
2022-12-08T05:21:13.604Z,90.23
2022-12-08T05:23:42.206Z,90.68
2022-12-08T05:26:10.685Z,91.06
2022-12-08T05:28:42.234Z,90.23
2022-12-08T05:31:11.862Z,89.92
2022-12-08T05:33:40.780Z,89.86
2022-12-08T05:36:09.874Z,90.89
2022-12-08T05:38:42.220Z,89.76
2022-12-08T05:41:14.388Z,90.19
2022-12-08T05:43:43.027Z,91.80
2022-12-08T05:46:12.002Z,90.87
2022-12-08T05:48:40.728Z,90.07
2022-12-08T05:51:18.032Z,89.85
2022-12-08T05:53:48.091Z,89.62
2022-12-08T05:56:16.681Z,90.15
2022-12-08T05:58:45.295Z,89.02
2022-12-08T06:01:20.383Z,90.90
2022-12-08T06:03:49.083Z,88.32
2022-12-08T06:06:18.654Z,90.02
2022-12-08T06:08:48.534Z,90.56
2022-12-08T06:11:20.762Z,88.84
2022-12-08T06:13:49.691Z,88.57
2022-12-08T06:16:18.950Z,90.60
2022-12-08T06:18:47.582Z,88.48
2022-12-08T06:21:17.518Z,88.26
2022-12-08T06:23:50.994Z,88.67
2022-12-08T06:26:20.449Z,90.21
2022-12-08T06:28:49.996Z,89.46
2022-12-08T06:31:21.312Z,90.81
2022-12-08T06:33:50.554Z,90.03
2022-12-08T06:36:22.017Z,89.17
2022-12-08T06:38:52.187Z,88.58
2022-12-08T06:41:20.762Z,88.27
2022-12-08T06:43:49.205Z,90.22
2022-12-08T06:46:19.525Z,89.71
2022-12-08T06:48:48.898Z,88.03
2022-12-08T06:51:20.364Z,88.19
2022-12-08T06:53:48.875Z,89.88
2022-12-08T06:56:20.036Z,89.26
2022-12-08T06:58:52.536Z,90.49
2022-12-08T07:01:21.746Z,89.40
2022-12-08T07:03:50.345Z,88.54
2022-12-08T07:06:23.147Z,89.58
2022-12-08T07:08:51.929Z,89.52
2022-12-08T07:11:22.740Z,88.58
2022-12-08T07:13:51.629Z,89.72
2022-12-08T07:16:20.328Z,89.81
2022-12-08T07:18:48.875Z,88.02
2022-12-08T07:21:18.899Z,89.41
2022-12-08T07:23:54.444Z,90.50
2022-12-08T07:26:27.767Z,89.26
2022-12-08T07:28:56.560Z,90.24
2022-12-08T07:31:26.808Z,89.60
2022-12-08T07:33:55.617Z,88.81
2022-12-08T07:36:25.007Z,90.85
2022-12-08T07:38:54.165Z,90.01
2022-12-08T07:41:24.346Z,90.14
2022-12-08T07:43:54.525Z,91.52
2022-12-08T07:46:25.293Z,90.49
2022-12-08T07:48:55.253Z,89.52
2022-12-08T07:51:24.808Z,90.49
2022-12-08T07:53:55.007Z,89.18
2022-12-08T07:56:24.203Z,89.74
2022-12-08T07:58:54.053Z,88.03
2022-12-08T08:01:25.304Z,90.25
2022-12-08T08:03:54.864Z,89.72
2022-12-08T08:06:23.921Z,89.90
2022-12-08T08:08:52.348Z,88.74
2022-12-08T08:11:21.812Z,90.15
2022-12-08T08:13:50.695Z,89.66
2022-12-08T08:16:21.741Z,89.02
2022-12-08T08:18:51.356Z,90.49
2022-12-08T08:21:44.519Z,88.96
2022-12-08T08:24:10.218Z,88.56
2022-12-08T08:26:39.084Z,88.49
2022-12-08T08:29:07.630Z,89.26
2022-12-08T08:31:37.569Z,88.36
2022-12-08T08:34:06.452Z,89.61
2022-12-08T08:36:35.301Z,88.74
2022-12-08T08:39:04.620Z,89.92
2022-12-08T08:41:33.255Z,89.91
2022-12-08T08:44:01.770Z,89.25
2022-12-08T08:46:30.445Z,89.86
2022-12-08T08:49:00.469Z,89.28
2022-12-08T08:51:28.957Z,89.59
2022-12-08T08:53:57.948Z,88.82
2022-12-08T08:56:26.886Z,89.66
2022-12-08T08:58:55.691Z,88.57
2022-12-08T09:01:26.094Z,88.01
2022-12-08T09:03:55.179Z,88.62
2022-12-08T09:06:25.044Z,88.39
2022-12-08T09:08:53.620Z,87.77
2022-12-08T09:11:23.286Z,87.66
2022-12-08T09:13:52.791Z,87.84
2022-12-08T09:16:22.542Z,87.44
2022-12-08T09:18:51.825Z,87.27
2022-12-08T09:21:23.356Z,87.72
2022-12-08T09:23:55.523Z,87.23
2022-12-08T09:26:25.091Z,86.34
2022-12-08T09:28:55.828Z,86.73
2022-12-08T09:31:25.420Z,85.84
2022-12-08T09:33:54.080Z,85.40
2022-12-08T09:36:22.985Z,84.93
2022-12-08T09:38:53.795Z,84.43
2022-12-08T09:41:35.985Z,84.61
2022-12-08T09:44:31.993Z,83.58
2022-12-08T09:47:04.641Z,83.75
2022-12-08T09:49:39.585Z,82.25
2022-12-08T09:52:21.148Z,82.52
2022-12-08T09:54:51.269Z,82.95
2022-12-08T09:57:23.591Z,81.08
2022-12-08T09:59:56.838Z,80.98
2022-12-08T10:02:27.261Z,79.53
2022-12-08T10:04:57.224Z,79.35
2022-12-08T10:07:35.461Z,79.53
2022-12-08T10:10:15.333Z,78.86
2022-12-08T10:12:50.851Z,78.22
2022-12-08T10:15:32.462Z,78.14
2022-12-08T10:18:04.038Z,78.28
2022-12-08T10:20:38.052Z,77.31
2022-12-08T10:23:11.468Z,76.47
2022-12-08T10:25:45.742Z,77.15
2022-12-08T10:28:15.082Z,77.09
2022-12-08T10:30:43.839Z,75.64
2022-12-08T10:33:16.753Z,74.15
2022-12-08T10:35:47.527Z,73.11
2022-12-08T10:38:23.187Z,73.83
2022-12-08T10:40:58.155Z,72.98
2022-12-08T10:43:28.504Z,74.10
2022-12-08T10:46:09.439Z,72.49
2022-12-08T10:48:38.332Z,72.08
2022-12-08T10:51:23.744Z,70.56
2022-12-08T10:53:52.205Z,71.06
2022-12-08T10:56:26.619Z,70.69
2022-12-08T10:59:08.133Z,70.04
2022-12-08T11:01:40.322Z,70.26
2022-12-08T11:04:16.540Z,70.03
2022-12-08T11:06:46.055Z,69.95
2022-12-08T11:09:38.242Z,68.18
2022-12-08T11:12:15.241Z,67.30
2022-12-08T11:14:50.272Z,67.77
2022-12-08T11:17:26.162Z,67.33
2022-12-08T11:20:01.925Z,66.76
2022-12-08T11:22:33.148Z,67.81
2022-12-08T11:25:10.261Z,64.96
2022-12-08T11:27:43.360Z,64.79
2022-12-08T11:30:16.759Z,65.88
2022-12-08T11:32:47.761Z,65.88
2022-12-08T11:35:24.003Z,64.87
2022-12-08T11:38:13.429Z,64.39
2022-12-08T11:40:47.125Z,65.01
2022-12-08T11:43:23.091Z,64.27
2022-12-08T11:45:58.763Z,65.91
2022-12-08T11:48:34.626Z,64.22
2022-12-08T11:51:10.499Z,64.31
2022-12-08T11:53:48.378Z,67.59
2022-12-08T11:56:23.234Z,66.45
2022-12-08T11:58:57.739Z,66.69
2022-12-08T12:01:27.743Z,66.87
2022-12-08T12:04:10.564Z,66.54
2022-12-08T12:08:30.496Z,66.58
2022-12-08T12:11:11.732Z,65.22
2022-12-08T12:13:58.647Z,65.72
2022-12-08T12:16:51.105Z,67.38
2022-12-08T12:19:22.861Z,66.81
2022-12-08T12:21:54.899Z,67.46
2022-12-08T12:24:32.841Z,68.90
2022-12-08T12:27:09.264Z,68.52
2022-12-08T12:29:39.500Z,69.50
2022-12-08T12:32:09.682Z,69.72
2022-12-08T12:34:44.398Z,68.13
2022-12-08T12:37:15.606Z,68.38
2022-12-08T12:39:56.156Z,67.80
2022-12-08T12:42:39.573Z,68.20
2022-12-08T12:45:25.293Z,67.04
2022-12-08T12:48:15.442Z,68.21
2022-12-08T12:50:45.741Z,68.71
2022-12-08T12:53:53.936Z,68.57
2022-12-08T12:56:49.842Z,68.00
2022-12-08T12:59:54.928Z,67.65
2022-12-08T13:02:27.103Z,67.33
2022-12-08T13:05:03.284Z,66.45
2022-12-08T13:07:35.402Z,69.64
2022-12-08T13:10:17.600Z,67.70
2022-12-08T13:13:04.495Z,68.03
2022-12-08T13:15:36.539Z,67.09
2022-12-08T13:18:06.680Z,67.51
2022-12-08T13:20:43.461Z,67.32
2022-12-08T13:23:32.107Z,67.95
2022-12-08T13:26:16.508Z,68.85
2022-12-08T13:29:23.266Z,67.63
2022-12-08T13:31:54.118Z,68.03
2022-12-08T13:34:31.055Z,69.68
2022-12-08T13:37:20.070Z,69.82
2022-12-08T13:39:53.075Z,69.89
2022-12-08T13:42:30.166Z,69.85
2022-12-08T13:45:36.245Z,70.37
2022-12-08T13:48:22.126Z,69.25
2022-12-08T13:57:05.124Z,70.33
2022-12-08T13:59:32.663Z,69.79
2022-12-08T14:02:06.583Z,69.94
2022-12-08T14:04:54.461Z,71.15
2022-12-08T14:07:24.924Z,69.90
2022-12-08T14:09:54.124Z,71.21
2022-12-08T14:12:25.819Z,71.10
2022-12-08T14:15:04.047Z,70.99
2022-12-08T14:17:34.954Z,71.03
2022-12-08T14:20:06.561Z,70.39
2022-12-08T14:22:36.829Z,70.41
2022-12-08T14:25:06.813Z,71.13
2022-12-08T14:27:37.763Z,71.95
2022-12-08T14:30:08.815Z,70.61
2022-12-08T14:32:45.280Z,71.28
2022-12-08T14:35:19.153Z,70.77
2022-12-08T14:37:49.881Z,71.42
2022-12-08T14:40:23.653Z,70.08
2022-12-08T14:42:55.277Z,70.42
2022-12-08T14:45:23.992Z,70.76
2022-12-08T14:47:53.819Z,72.31
2022-12-08T14:50:40.385Z,69.68
2022-12-08T14:53:15.455Z,70.49
2022-12-08T14:55:46.384Z,69.92
2022-12-08T14:58:27.752Z,70.38
2022-12-08T15:00:58.907Z,70.31
2022-12-08T15:03:32.110Z,71.26
2022-12-08T15:06:05.096Z,71.53
2022-12-08T15:08:35.101Z,70.84
2022-12-08T15:11:28.434Z,70.26
2022-12-08T15:13:57.024Z,68.93
2022-12-08T15:16:28.310Z,70.44
2022-12-08T15:19:16.612Z,69.96
2022-12-08T15:21:46.956Z,69.90
2022-12-08T15:24:16.751Z,70.05
2022-12-08T15:26:47.590Z,70.84
2022-12-08T15:29:22.209Z,72.01
2022-12-08T15:31:52.327Z,70.92
2022-12-08T15:34:22.527Z,71.44
2022-12-08T15:36:52.929Z,71.76
2022-12-08T15:39:39.579Z,70.14
2022-12-08T15:42:13.271Z,70.25
2022-12-08T15:44:42.313Z,72.00
2022-12-08T15:47:16.675Z,72.65
2022-12-08T15:49:46.926Z,73.53
2022-12-08T15:52:17.982Z,73.91
2022-12-08T15:54:46.757Z,73.48
2022-12-08T15:57:35.857Z,73.74
2022-12-08T16:00:51.244Z,73.90
2022-12-08T16:09:12.721Z,74.23
2022-12-08T16:12:08.899Z,75.40
2022-12-08T16:17:28.882Z,74.65
2022-12-08T16:19:58.753Z,75.55
2022-12-08T16:25:22.137Z,74.64
2022-12-08T16:28:36.796Z,75.38
2022-12-08T16:30:42.293Z,74.75
2022-12-08T16:33:12.374Z,75.07
2022-12-08T16:35:41.784Z,75.01
2022-12-08T16:38:15.503Z,75.00
2022-12-08T16:40:59.690Z,75.74
2022-12-08T16:43:28.108Z,76.93
2022-12-08T16:45:56.595Z,76.43
2022-12-08T16:48:25.240Z,76.90
2022-12-08T16:50:53.959Z,78.07
2022-12-08T16:53:24.446Z,78.27
2022-12-08T16:55:52.978Z,76.41
2022-12-08T16:58:21.586Z,77.42
2022-12-08T17:00:50.122Z,77.65
2022-12-08T17:03:18.922Z,77.44
2022-12-08T17:05:47.454Z,77.59
2022-12-08T17:08:16.095Z,77.51
2022-12-08T17:11:06.095Z,79.00
2022-12-08T17:13:35.024Z,79.79
2022-12-08T17:16:03.794Z,79.25
2022-12-08T17:18:32.238Z,78.13
2022-12-08T17:21:00.887Z,77.70
2022-12-08T17:23:29.469Z,79.47
2022-12-08T17:26:01.013Z,78.68
2022-12-08T17:28:51.923Z,78.52
2022-12-08T17:31:18.594Z,78.20
2022-12-08T17:33:47.121Z,77.65
2022-12-08T17:36:17.807Z,79.12
2022-12-08T17:38:46.422Z,78.85
2022-12-08T17:41:16.408Z,78.83
2022-12-08T17:43:44.949Z,79.60
2022-12-08T17:46:18.215Z,77.94
2022-12-08T17:48:46.875Z,79.38
2022-12-08T17:51:15.721Z,78.33
2022-12-08T17:53:44.707Z,78.39
2022-12-08T17:56:18.038Z,78.39
2022-12-08T17:58:49.868Z,79.97
2022-12-08T18:01:22.929Z,79.88
2022-12-08T18:03:52.352Z,78.92
2022-12-08T18:06:21.134Z,78.29
2022-12-08T18:08:49.615Z,79.38
2022-12-08T18:11:21.015Z,80.59
2022-12-08T18:13:51.035Z,80.15
2022-12-08T18:16:21.676Z,79.01
2022-12-08T18:18:50.294Z,81.33
2022-12-08T18:21:23.233Z,80.44
2022-12-08T18:23:52.336Z,81.72
2022-12-08T18:26:22.981Z,81.08
2022-12-08T18:28:51.448Z,80.34
2022-12-08T18:31:22.454Z,80.99
2022-12-08T18:33:52.039Z,79.83
2022-12-08T18:36:23.098Z,80.01
2022-12-08T18:38:52.923Z,81.37
2022-12-08T18:41:25.723Z,81.49
2022-12-08T18:43:55.248Z,81.81
2022-12-08T18:46:25.316Z,81.44
2022-12-08T18:48:54.106Z,81.32
2022-12-08T18:51:24.843Z,80.26
2022-12-08T18:53:53.978Z,81.58
2022-12-08T18:56:26.408Z,81.86
2022-12-08T18:59:01.336Z,80.70
2022-12-08T19:01:32.618Z,82.17
2022-12-08T19:04:27.218Z,81.74
2022-12-08T19:06:50.524Z,80.65
2022-12-08T19:09:19.637Z,81.42
2022-12-08T19:11:49.637Z,81.49
2022-12-08T19:14:22.605Z,82.19
2022-12-08T19:16:54.550Z,80.55
2022-12-08T19:19:23.059Z,81.02
2022-12-08T19:21:51.778Z,82.05
2022-12-08T19:24:20.864Z,81.58
2022-12-08T19:26:50.791Z,80.26
2022-12-08T19:29:19.245Z,80.66
2022-12-08T19:31:47.993Z,81.41
2022-12-08T19:34:16.687Z,80.54
2022-12-08T19:36:45.683Z,81.75
2022-12-08T19:39:36.257Z,80.95
2022-12-08T19:42:24.742Z,81.03
2022-12-08T19:44:56.060Z,80.47
2022-12-08T19:47:26.977Z,80.73
2022-12-08T19:50:16.229Z,80.76
2022-12-08T19:52:45.278Z,81.74
2022-12-08T19:55:14.036Z,81.96
2022-12-08T19:57:46.423Z,80.63
2022-12-08T20:00:15.396Z,81.92
2022-12-08T20:02:43.997Z,81.33
2022-12-08T20:05:13.318Z,80.77
2022-12-08T20:07:42.375Z,80.08
2022-12-08T20:10:17.986Z,81.76
2022-12-08T20:12:47.798Z,80.89
2022-12-08T20:15:16.496Z,80.57
2022-12-08T20:17:44.938Z,80.93
2022-12-08T20:20:14.896Z,81.59
2022-12-08T20:22:45.213Z,80.94
2022-12-08T20:25:13.797Z,81.84
2022-12-08T20:27:42.611Z,81.77
2022-12-08T20:30:17.030Z,81.89
2022-12-08T20:32:46.398Z,81.78
2022-12-08T20:35:16.340Z,81.84
2022-12-08T20:37:45.308Z,81.41
2022-12-08T20:40:14.073Z,82.65
2022-12-08T20:42:42.947Z,82.94
2022-12-08T20:45:12.787Z,82.64
2022-12-08T20:47:41.549Z,82.62
2022-12-08T20:50:11.048Z,83.38
2022-12-08T20:52:40.282Z,82.01
2022-12-08T20:55:09.925Z,82.77
2022-12-08T20:57:38.743Z,83.48
2022-12-08T21:00:09.172Z,83.69
2022-12-08T21:02:45.284Z,83.25
2022-12-08T21:05:16.493Z,83.96
2022-12-08T21:07:45.437Z,83.65
2022-12-08T21:10:14.425Z,84.26
2022-12-08T21:12:43.339Z,84.99
2022-12-08T21:15:13.251Z,84.96
2022-12-08T21:17:43.230Z,85.20
2022-12-08T21:20:12.144Z,85.38
2022-12-08T21:22:40.942Z,85.42
2022-12-08T21:25:10.519Z,86.06
2022-12-08T21:27:39.806Z,85.52
2022-12-08T21:30:10.595Z,84.97
2022-12-08T21:32:40.205Z,84.71
2022-12-08T21:35:11.226Z,85.83
2022-12-08T21:37:39.969Z,84.48
2022-12-08T21:40:10.857Z,83.86
2022-12-08T21:42:46.224Z,83.65
2022-12-08T21:45:17.203Z,82.54
2022-12-08T21:47:46.409Z,81.59
2022-12-08T21:50:17.173Z,80.16
2022-12-08T21:52:47.690Z,78.92
2022-12-08T21:55:19.114Z,78.70
2022-12-08T21:57:47.948Z,78.16
2022-12-08T22:00:18.154Z,78.15
2022-12-08T22:02:47.189Z,77.92
2022-12-08T22:05:17.390Z,78.41
2022-12-08T22:07:45.942Z,79.11
2022-12-08T22:10:14.743Z,79.58
2022-12-08T22:12:43.552Z,80.74
2022-12-08T22:15:12.774Z,80.18
2022-12-08T22:17:42.914Z,80.28
2022-12-08T22:20:14.251Z,80.69
2022-12-08T22:22:45.555Z,80.54
2022-12-08T22:25:14.534Z,81.32
2022-12-08T22:27:43.150Z,81.46
2022-12-08T22:30:12.618Z,81.46
2022-12-08T22:32:41.910Z,81.61
2022-12-08T22:35:11.173Z,81.17
2022-12-08T22:37:39.831Z,81.69
2022-12-08T22:40:12.091Z,80.96
2022-12-08T22:42:40.651Z,80.54
2022-12-08T22:45:10.092Z,80.65
2022-12-08T22:47:38.564Z,80.35
2022-12-08T22:50:08.338Z,80.88
2022-12-08T22:52:37.381Z,80.95
2022-12-08T22:55:06.965Z,80.54
2022-12-08T22:57:36.889Z,80.41
2022-12-08T23:00:07.606Z,80.74
2022-12-08T23:02:38.400Z,81.04
2022-12-08T23:05:07.803Z,80.76
2022-12-08T23:07:36.551Z,81.06
2022-12-08T23:10:07.039Z,80.96
2022-12-08T23:12:37.865Z,81.42
2022-12-08T23:15:07.807Z,81.90
2022-12-08T23:17:36.583Z,81.86
2022-12-08T23:20:06.497Z,81.76
2022-12-08T23:22:35.331Z,81.77
2022-12-08T23:25:03.983Z,82.24
2022-12-08T23:27:32.696Z,81.31
2022-12-08T23:30:02.720Z,81.83
2022-12-08T23:32:31.340Z,82.64
2022-12-08T23:34:59.913Z,81.80
2022-12-08T23:37:28.783Z,82.61
2022-12-08T23:39:57.380Z,81.51
2022-12-08T23:42:25.862Z,81.50
2022-12-08T23:44:54.277Z,82.06
2022-12-08T23:47:24.280Z,82.10
2022-12-08T23:49:52.968Z,81.71
2022-12-08T23:52:21.527Z,81.67
2022-12-08T23:54:51.174Z,81.52
2022-12-08T23:57:19.686Z,81.27
2022-12-08T23:59:48.232Z,82.20
